(°C)
17°
16°
15°
14°
14°
13°
13°
(°C)
16°
15°
14°
13°
12°
12°
11°
SSV
S
SE
SE
SSE
SSE
SSE
(km/h)
7-17
6-13
5-10
6-10
6-12
7-13
7-13
(mm)
0
0
0
0
0
0
0
(%)
0
0
0
0
0
0
0

Elevația soarelui

/ -1.9°
sun-icon
UV 1
07:26
18:22
Primul pătrar (132°)
17:21
02:51

METAR pentru Renton (KRNT)

Ora Condiții Temperatură/
Punctul de rouă
Vânt Vizibilitate Vremea Nori Presiune Schimbă Brut
VFR 17.8°C / 8.9°C 220º 9kt Gust 14kt >10km - Clear 1011 - KRNT 170053Z 22009G14KT 10SM CLR 18/09 A2986 RMK AO2 SLP117 T01780089
VFR 18.3°C / 8.9°C 200º 5kt >10km - Clear 1011 - KRNT 162353Z 20005KT 10SM CLR 18/09 A2987 RMK AO2 SLP119 T01830089 10200 20150 56021
VFR 19.4°C / 8.3°C 210º 8kt >10km - Clear 1012 - KRNT 162253Z 21008KT 10SM CLR 19/08 A2989 RMK AO2 SLP126 T01940083
VFR 20°C / 8.9°C 180º 8kt >10km - Clear 1013 - KRNT 162153Z 18008KT 10SM CLR 20/09 A2990 RMK AO2 SLP131 T02000089
VFR 19.4°C / 8.3°C 190º variable 160º to 230º 7kt >10km - Broken Clouds 8000ft 1014 - KRNT 162053Z 19007KT 160V230 10SM BKN080 19/08 A2993 RMK AO2 SLP140 T01940083 58025
VFR 18.3°C / 8.3°C 150º 4kt >10km - Overcast 8500ft 1015 - KRNT 161953Z 15004KT 10SM OVC085 18/08 A2996 RMK AO2 SLP151 T01830083
VFR 17.2°C / 8.3°C 170º 7kt >10km - Broken Clouds 7500ft
Overcast 8500ft
1015 - KRNT 161853Z 17007KT 10SM BKN075 OVC085 17/08 A2998 RMK AO2 SLP158 T01720083
VFR 15°C / 8.9°C variable 0kt >10km - Few Clouds 6500ft
Overcast 8000ft
1016 - KRNT 161753Z 00000KT 10SM FEW065 OVC080 15/09 A3000 RMK AO2 SLP165 T01500089 10150 20128 55003
VFR 13.9°C / 8.3°C 180º 4kt >10km - Broken Clouds 6000ft
Overcast 8500ft
1016 - KRNT 161653Z 18004KT 10SM BKN060 OVC085 14/08 A3000 RMK AO2 SLP163 T01390083
VFR 13.3°C / 8.3°C 170º 5kt >10km - Broken Clouds 6500ft
Overcast 8000ft
1016 - KRNT 161553Z 17005KT 10SM BKN065 OVC080 13/08 A3000 RMK AO2 SLP165 T01330083
VFR 13.9°C / 7.8°C 160º 7kt >10km - Broken Clouds 3800ft
Broken Clouds 6000ft
Overcast 7500ft
1016 - KRNT 161453Z 16007KT 10SM BKN038 BKN060 OVC075 14/08 A3001 RMK AO2 SLP168 T01390078 58013
VFR 13.3°C / 7.8°C 180º 5kt >10km - Overcast 3900ft 1017 - KRNT 161353Z 18005KT 10SM OVC039 13/08 A3002 RMK AO2 SLP172 T01330078
VFR 13.3°C / 7.8°C 120º 4kt >10km - Overcast 4600ft 1017 - KRNT 161253Z AUTO 12004KT 10SM OVC046 13/08 A3004 RMK AO2 SLP177 T01330078
VFR 12.8°C / 8.3°C 130º 4kt >10km - Overcast 5500ft 1018 - KRNT 161153Z AUTO 13004KT 10SM OVC055 13/08 A3005 RMK AO2 SLP181 60000 T01280083 10139 20122 58014
VFR 12.8°C / 8.9°C variable 0kt >10km - Broken Clouds 5000ft
Overcast 11000ft
1018 - KRNT 161053Z AUTO 00000KT 10SM BKN050 OVC110 13/09 A3006 RMK AO2 SLP185 T01280089
VFR 12.8°C / 8.3°C 150º 5kt >10km - Overcast 8000ft 1019 - KRNT 160953Z AUTO 15005KT 10SM OVC080 13/08 A3008 RMK AO2 SLP191 T01280083
VFR 12.8°C / 8.9°C 180º 4kt >10km 0.13mm precipitation Broken Clouds 8500ft
Overcast 12000ft
1019 - KRNT 160853Z AUTO 18004KT 10SM BKN085 OVC120 13/09 A3009 RMK AO2 RAB0754E34 SLP195 P0000 60000 T01280089 56009
VFR 13.9°C / 8.9°C variable 3kt >10km 0.13mm precipitation Scattered Clouds 5500ft
Broken Clouds 7000ft
Overcast 10000ft
1020 - KRNT 160753Z AUTO VRB03KT 10SM SCT055 BKN070 OVC100 14/09 A3011 RMK AO2 RAB03E24 SLP200 P0000 T01390089 401670111
VFR 13.3°C / 8.9°C 170º 4kt >10km - Scattered Clouds 6000ft
Overcast 8500ft
1019 - KRNT 160653Z AUTO 17004KT 10SM SCT060 OVC085 13/09 A3010 RMK AO2 SLP197 T01330089
VFR 13.9°C / 8.9°C 130º 3kt >10km - Overcast 5000ft 1020 - KRNT 160553Z AUTO 13003KT 10SM OVC050 14/09 A3012 RMK AO2 SLP204 T01390089 10161 20133 53006
VFR 13.9°C / 8.9°C 130º 4kt >10km - Overcast 5500ft 1020 - KRNT 160453Z AUTO 13004KT 10SM OVC055 14/09 A3011 RMK AO2 SLP200 T01390089
VFR 13.9°C / 8.9°C variable 0kt >10km - Few Clouds 6500ft
Overcast 9500ft
1019 - KRNT 160353Z AUTO 00000KT 10SM FEW065 OVC095 14/09 A3011 RMK AO2 SLP199 T01390089
VFR 13.9°C / 8.9°C 200º 4kt >10km - Broken Clouds 6000ft
Overcast 11000ft
1019 - KRNT 160253Z AUTO 20004KT 10SM BKN060 OVC110 14/09 A3010 RMK AO2 SLP198 T01390089 56005
VFR 13.9°C / 8.9°C variable 0kt >10km - Overcast 11000ft 1020 - KRNT 160153Z 00000KT 10SM OVC110 14/09 A3011 RMK AO2 SLP200 T01390089

VFR

17.8°C / 8.9°C

[Mai mult]
Vânt 220º 9kt Gust 14kt
Vizibilitate >10km
Vremea -
Nori Clear
Presiune 1011
Schimbă -
Brut KRNT 170053Z 22009G14KT 10SM CLR 18/09 A2986 RMK AO2 SLP117 T01780089

VFR

18.3°C / 8.9°C

[Mai mult]
Vânt 200º 5kt
Vizibilitate >10km
Vremea -
Nori Clear
Presiune 1011
Schimbă -
Brut KRNT 162353Z 20005KT 10SM CLR 18/09 A2987 RMK AO2 SLP119 T01830089 10200 20150 56021

VFR

19.4°C / 8.3°C

[Mai mult]
Vânt 210º 8kt
Vizibilitate >10km
Vremea -
Nori Clear
Presiune 1012
Schimbă -
Brut KRNT 162253Z 21008KT 10SM CLR 19/08 A2989 RMK AO2 SLP126 T01940083

VFR

20°C / 8.9°C

[Mai mult]
Vânt 180º 8kt
Vizibilitate >10km
Vremea -
Nori Clear
Presiune 1013
Schimbă -
Brut KRNT 162153Z 18008KT 10SM CLR 20/09 A2990 RMK AO2 SLP131 T02000089

VFR

19.4°C / 8.3°C

[Mai mult]
Vânt 190º variable 160º to 230º 7kt
Vizibilitate >10km
Vremea -
Nori Broken Clouds 8000ft
Presiune 1014
Schimbă -
Brut KRNT 162053Z 19007KT 160V230 10SM BKN080 19/08 A2993 RMK AO2 SLP140 T01940083 58025

VFR

18.3°C / 8.3°C

[Mai mult]
Vânt 150º 4kt
Vizibilitate >10km
Vremea -
Nori Overcast 8500ft
Presiune 1015
Schimbă -
Brut KRNT 161953Z 15004KT 10SM OVC085 18/08 A2996 RMK AO2 SLP151 T01830083

VFR

17.2°C / 8.3°C

[Mai mult]
Vânt 170º 7kt
Vizibilitate >10km
Vremea -
Nori Broken Clouds 7500ft
Overcast 8500ft
Presiune 1015
Schimbă -
Brut KRNT 161853Z 17007KT 10SM BKN075 OVC085 17/08 A2998 RMK AO2 SLP158 T01720083

VFR

15°C / 8.9°C

[Mai mult]
Vânt variable 0kt
Vizibilitate >10km
Vremea -
Nori Few Clouds 6500ft
Overcast 8000ft
Presiune 1016
Schimbă -
Brut KRNT 161753Z 00000KT 10SM FEW065 OVC080 15/09 A3000 RMK AO2 SLP165 T01500089 10150 20128 55003

VFR

13.9°C / 8.3°C

[Mai mult]
Vânt 180º 4kt
Vizibilitate >10km
Vremea -
Nori Broken Clouds 6000ft
Overcast 8500ft
Presiune 1016
Schimbă -
Brut KRNT 161653Z 18004KT 10SM BKN060 OVC085 14/08 A3000 RMK AO2 SLP163 T01390083

VFR

13.3°C / 8.3°C

[Mai mult]
Vânt 170º 5kt
Vizibilitate >10km
Vremea -
Nori Broken Clouds 6500ft
Overcast 8000ft
Presiune 1016
Schimbă -
Brut KRNT 161553Z 17005KT 10SM BKN065 OVC080 13/08 A3000 RMK AO2 SLP165 T01330083

VFR

13.9°C / 7.8°C

[Mai mult]
Vânt 160º 7kt
Vizibilitate >10km
Vremea -
Nori Broken Clouds 3800ft
Broken Clouds 6000ft
Overcast 7500ft
Presiune 1016
Schimbă -
Brut KRNT 161453Z 16007KT 10SM BKN038 BKN060 OVC075 14/08 A3001 RMK AO2 SLP168 T01390078 58013

VFR

13.3°C / 7.8°C

[Mai mult]
Vânt 180º 5kt
Vizibilitate >10km
Vremea -
Nori Overcast 3900ft
Presiune 1017
Schimbă -
Brut KRNT 161353Z 18005KT 10SM OVC039 13/08 A3002 RMK AO2 SLP172 T01330078

VFR

13.3°C / 7.8°C

[Mai mult]
Vânt 120º 4kt
Vizibilitate >10km
Vremea -
Nori Overcast 4600ft
Presiune 1017
Schimbă -
Brut KRNT 161253Z AUTO 12004KT 10SM OVC046 13/08 A3004 RMK AO2 SLP177 T01330078

VFR

12.8°C / 8.3°C

[Mai mult]
Vânt 130º 4kt
Vizibilitate >10km
Vremea -
Nori Overcast 5500ft
Presiune 1018
Schimbă -
Brut KRNT 161153Z AUTO 13004KT 10SM OVC055 13/08 A3005 RMK AO2 SLP181 60000 T01280083 10139 20122 58014

VFR

12.8°C / 8.9°C

[Mai mult]
Vânt variable 0kt
Vizibilitate >10km
Vremea -
Nori Broken Clouds 5000ft
Overcast 11000ft
Presiune 1018
Schimbă -
Brut KRNT 161053Z AUTO 00000KT 10SM BKN050 OVC110 13/09 A3006 RMK AO2 SLP185 T01280089

VFR

12.8°C / 8.3°C

[Mai mult]
Vânt 150º 5kt
Vizibilitate >10km
Vremea -
Nori Overcast 8000ft
Presiune 1019
Schimbă -
Brut KRNT 160953Z AUTO 15005KT 10SM OVC080 13/08 A3008 RMK AO2 SLP191 T01280083

VFR

12.8°C / 8.9°C

[Mai mult]
Vânt 180º 4kt
Vizibilitate >10km
Vremea 0.13mm precipitation
Nori Broken Clouds 8500ft
Overcast 12000ft
Presiune 1019
Schimbă -
Brut KRNT 160853Z AUTO 18004KT 10SM BKN085 OVC120 13/09 A3009 RMK AO2 RAB0754E34 SLP195 P0000 60000 T01280089 56009

VFR

13.9°C / 8.9°C

[Mai mult]
Vânt variable 3kt
Vizibilitate >10km
Vremea 0.13mm precipitation
Nori Scattered Clouds 5500ft
Broken Clouds 7000ft
Overcast 10000ft
Presiune 1020
Schimbă -
Brut KRNT 160753Z AUTO VRB03KT 10SM SCT055 BKN070 OVC100 14/09 A3011 RMK AO2 RAB03E24 SLP200 P0000 T01390089 401670111

VFR

13.3°C / 8.9°C

[Mai mult]
Vânt 170º 4kt
Vizibilitate >10km
Vremea -
Nori Scattered Clouds 6000ft
Overcast 8500ft
Presiune 1019
Schimbă -
Brut KRNT 160653Z AUTO 17004KT 10SM SCT060 OVC085 13/09 A3010 RMK AO2 SLP197 T01330089

VFR

13.9°C / 8.9°C

[Mai mult]
Vânt 130º 3kt
Vizibilitate >10km
Vremea -
Nori Overcast 5000ft
Presiune 1020
Schimbă -
Brut KRNT 160553Z AUTO 13003KT 10SM OVC050 14/09 A3012 RMK AO2 SLP204 T01390089 10161 20133 53006

VFR

13.9°C / 8.9°C

[Mai mult]
Vânt 130º 4kt
Vizibilitate >10km
Vremea -
Nori Overcast 5500ft
Presiune 1020
Schimbă -
Brut KRNT 160453Z AUTO 13004KT 10SM OVC055 14/09 A3011 RMK AO2 SLP200 T01390089

VFR

13.9°C / 8.9°C

[Mai mult]
Vânt variable 0kt
Vizibilitate >10km
Vremea -
Nori Few Clouds 6500ft
Overcast 9500ft
Presiune 1019
Schimbă -
Brut KRNT 160353Z AUTO 00000KT 10SM FEW065 OVC095 14/09 A3011 RMK AO2 SLP199 T01390089

VFR

13.9°C / 8.9°C

[Mai mult]
Vânt 200º 4kt
Vizibilitate >10km
Vremea -
Nori Broken Clouds 6000ft
Overcast 11000ft
Presiune 1019
Schimbă -
Brut KRNT 160253Z AUTO 20004KT 10SM BKN060 OVC110 14/09 A3010 RMK AO2 SLP198 T01390089 56005

VFR

13.9°C / 8.9°C

[Mai mult]
Vânt variable 0kt
Vizibilitate >10km
Vremea -
Nori Overcast 11000ft
Presiune 1020
Schimbă -
Brut KRNT 160153Z 00000KT 10SM OVC110 14/09 A3011 RMK AO2 SLP200 T01390089

Imagini satelitare actuale pentru: Renton, Statele Unite

Markerul cu locaţia este poziţionat pe Renton. [Mai mult]

Imaginea satelitară în timp real combină lumina vizibilă din timpul zilei cu radiația cu infraroșu din timpul nopții. Pe timp de noapte, imaginea nu este întunecată, deoarece radiația cu infraroșu poate detecta diferențele de temperatură. Din păcate, norii joși și ceața sunt greu de recunoscut față de temperatura de la sol, din această cauză putând fi invizibili pe timp de noapte. Imaginile satelitare Meteosat pentru Europa sunt actualizate în timp real din 5 în 5 minute. Imaginile GOES-16/GOES-17 (America de Nord și de Sud) și Himawari (Asia) sunt actualizate din 10 în 10 minute.

Radar și nowcast de precipitații pentru Renton

Burniță
Ușoară
Moderat
Greu
Foarte greu
Grindină

Markerul de locație este plasat în Renton. Această animație arată radarul de precipitații pentru ultima oră, precum și o 1h prognoză. Ploaia sau ninsoarea slabă ar putea fi invizibilă pentru radar. Intensitatea precipitațiilor este codificată prin culori, de la albastru deschis la portocaliu.